Time;durP1;ratioP1;P1;durP2;ratioP2;P2;SDS_P1;SDS_P2;PMS_P1;PMS_P2;Temp;Humidity;BMP_temperature;BMP_pressure;BME280_temperature;BME280_humidity;BME280_pressure;Samples;Min_cycle;Max_cycle;Signal;HPM_P1;HPM_P2
2023/11/15 00:01:35;;;;;;;19.30;11.80;;;;;;;7.93;88.90;99284.09;5112286;28;20058;-39
2023/11/15 00:04:00;;;;;;;17.35;10.95;;;;;;;7.77;89.45;99296.66;5112596;28;20047;-39
2023/11/15 00:06:26;;;;;;;18.45;11.27;;;;;;;7.72;89.38;99283.19;5112488;28;20467;-39
2023/11/15 00:08:52;;;;;;;22.30;12.35;;;;;;;8.08;88.00;99258.28;5112335;28;20073;-36
2023/11/15 00:11:18;;;;;;;24.33;12.70;;;;;;;8.63;84.88;99252.13;5112710;28;20024;-39
2023/11/15 00:13:48;;;;;;;19.10;11.40;;;;;;;8.55;84.31;99261.09;5112234;28;20043;-39
2023/11/15 00:16:13;;;;;;;23.80;12.07;;;;;;;8.33;85.37;99266.50;5112249;28;20024;-39
2023/11/15 00:18:39;;;;;;;20.27;12.05;;;;;;;8.18;84.61;99274.59;5111753;28;20019;-39
2023/11/15 00:21:05;;;;;;;21.27;11.15;;;;;;;7.81;87.16;99287.31;5112374;28;20080;-38
2023/11/15 00:23:31;;;;;;;24.77;11.55;;;;;;;7.54;89.28;99285.53;5111970;28;20051;-39
2023/11/15 00:25:56;;;;;;;17.15;10.73;;;;;;;7.40;90.70;99269.56;5111971;28;20020;-40
2023/11/15 00:28:22;;;;;;;19.02;11.45;;;;;;;7.33;91.19;99258.13;5112132;28;20080;-40
2023/11/15 00:30:47;;;;;;;20.25;10.77;;;;;;;7.29;91.55;99250.75;5112126;28;20547;-38
2023/11/15 00:33:12;;;;;;;21.83;10.75;;;;;;;7.41;91.37;99244.72;5093474;28;20042;-40
2023/11/15 00:35:38;;;;;;;18.63;11.23;;;;;;;7.37;91.01;99237.38;5111669;28;20023;-36
2023/11/15 00:38:04;;;;;;;19.10;11.57;;;;;;;7.39;91.31;99245.94;5111525;28;20030;-38
2023/11/15 00:40:29;;;;;;;20.90;11.05;;;;;;;7.29;91.72;99243.66;5111512;28;20027;-39
2023/11/15 00:42:56;;;;;;;19.27;11.55;;;;;;;7.28;91.67;99242.00;5111595;28;20027;-37
2023/11/15 00:45:23;;;;;;;17.42;10.90;;;;;;;7.34;91.25;99248.34;5111300;28;20046;-39
2023/11/15 00:47:49;;;;;;;20.90;11.95;;;;;;;7.39;90.07;99257.34;5111417;28;20201;-36
2023/11/15 00:50:14;;;;;;;20.23;11.50;;;;;;;7.26;91.74;99259.09;5111413;28;20111;-37
2023/11/15 00:52:40;;;;;;;23.13;11.30;;;;;;;7.22;91.56;99267.41;5111175;28;20024;-37
2023/11/15 00:55:07;;;;;;;23.67;11.68;;;;;;;7.33;91.34;99258.13;5111315;28;20095;-36
2023/11/15 00:57:34;;;;;;;16.20;10.07;;;;;;;7.22;92.51;99248.91;5111208;28;20023;-39
2023/11/15 00:59:59;;;;;;;17.77;10.15;;;;;;;7.23;91.08;99252.34;5111021;28;20494;-39
2023/11/15 01:02:29;;;;;;;16.35;10.13;;;;;;;7.14;91.57;99261.44;5092589;28;20019;-39
2023/11/15 01:04:54;;;;;;;;;;;;;;;7.20;92.52;99281.88;5111264;28;20019;-37
2023/11/15 01:07:20;;;;;;;18.55;11.27;;;;;;;7.44;91.87;99270.84;5111767;28;19998;-37
2023/11/15 01:09:45;;;;;;;25.77;10.73;;;;;;;7.48;90.97;99265.13;5112286;28;20123;-39
2023/11/15 01:12:11;;;;;;;19.13;10.63;;;;;;;7.34;89.54;99238.56;5111982;28;20034;-39
2023/11/15 01:14:36;;;;;;;19.85;11.40;;;;;;;7.19;90.88;99240.53;5111992;28;20023;-39
2023/11/15 01:17:03;;;;;;;23.85;12.55;;;;;;;7.20;90.87;99237.69;5111268;28;20369;-39
2023/11/15 01:19:29;;;;;;;33.78;15.43;;;;;;;7.53;90.12;99231.75;5111820;28;20053;-38
2023/11/15 01:21:56;;;;;;;26.00;13.77;;;;;;;7.70;87.56;99234.09;5111640;28;20092;-39
2023/11/15 01:24:21;;;;;;;33.28;14.35;;;;;;;7.56;87.18;99251.75;5111943;28;20027;-39
2023/11/15 01:26:47;;;;;;;28.83;14.45;;;;;;;7.92;86.00;99254.16;5111991;28;20379;-38
2023/11/15 01:29:12;;;;;;;25.38;13.63;;;;;;;7.35;87.61;99242.88;5111657;28;20065;-40
2023/11/15 01:31:38;;;;;;;27.20;13.95;;;;;;;7.03;89.91;99242.44;5111507;28;20110;-40
2023/11/15 01:34:03;;;;;;;27.83;14.27;;;;;;;7.05;90.51;99226.38;5111336;28;20032;-38
2023/11/15 01:36:29;;;;;;;31.15;14.43;;;;;;;7.00;90.60;99213.72;5111413;28;20141;-38
2023/11/15 01:38:55;;;;;;;26.15;13.30;;;;;;;6.79;92.07;99213.78;5111581;28;20182;-36
2023/11/15 01:41:20;;;;;;;26.23;13.68;;;;;;;6.87;91.95;99223.41;5111414;28;20455;-37
2023/11/15 01:43:45;;;;;;;24.45;13.45;;;;;;;6.78;92.13;99217.44;5111529;28;20058;-36
2023/11/15 01:46:14;;;;;;;30.33;13.88;;;;;;;6.68;92.08;99222.22;5110938;28;20035;-36
2023/11/15 01:48:40;;;;;;;22.70;12.57;;;;;;;6.64;92.30;99217.34;5111120;28;20059;-40
2023/11/15 01:51:05;;;;;;;24.45;12.45;;;;;;;6.58;92.20;99226.00;5110910;28;20015;-37
2023/11/15 01:53:31;;;;;;;24.00;12.38;;;;;;;6.74;92.80;99217.00;5111180;28;20450;-39
2023/11/15 01:55:57;;;;;;;21.88;11.50;;;;;;;6.71;93.45;99206.81;5110978;28;20020;-39
2023/11/15 01:58:25;;;;;;;20.40;11.75;;;;;;;6.87;92.41;99215.47;5111323;28;20105;-39
2023/11/15 02:00:52;;;;;;;18.83;10.90;;;;;;;6.78;91.77;99212.97;5111053;28;20028;-39
2023/11/15 02:03:18;;;;;;;20.85;11.18;;;;;;;6.89;91.83;99219.53;5110974;28;20047;-39
2023/11/15 02:05:45;;;;;;;19.92;11.88;;;;;;;6.85;90.97;99218.28;5110833;28;20023;-39
2023/11/15 02:08:10;;;;;;;21.20;11.48;;;;;;;6.79;91.52;99222.53;5110982;28;20033;-38
2023/11/15 02:10:37;;;;;;;20.58;11.98;;;;;;;6.71;92.50;99212.09;5110961;28;20337;-37
2023/11/15 02:13:02;;;;;;;19.67;11.38;;;;;;;6.84;92.27;99229.91;5110969;28;20029;-36
2023/11/15 02:15:28;;;;;;;22.85;11.23;;;;;;;6.82;92.24;99231.91;5114264;28;20011;-37
2023/11/15 02:17:54;;;;;;;19.38;11.13;;;;;;;6.78;92.64;99235.97;5115196;28;20015;-38
2023/11/15 02:20:20;;;;;;;20.63;11.73;;;;;;;6.87;91.20;99231.34;5115051;28;20110;-39
2023/11/15 02:22:47;;;;;;;20.73;11.45;;;;;;;6.89;91.76;99232.75;5114969;28;20107;-39
2023/11/15 02:25:13;;;;;;;21.80;11.98;;;;;;;6.94;91.43;99234.84;5114778;28;20023;-39
2023/11/15 02:27:39;;;;;;;21.98;11.35;;;;;;;6.93;92.58;99223.47;5114595;28;20037;-40
2023/11/15 02:30:07;;;;;;;18.48;10.40;;;;;;;6.95;91.07;99217.97;5115136;28;20045;-38
2023/11/15 02:32:32;;;;;;;19.17;10.82;;;;;;;6.95;91.78;99218.78;5117780;27;20087;-37
2023/11/15 02:34:58;;;;;;;21.45;10.68;;;;;;;6.97;91.00;99240.59;5135478;27;20027;-38
2023/11/15 02:37:23;;;;;;;18.88;10.43;;;;;;;7.09;90.83;99234.75;5135689;27;20157;-39
2023/11/15 02:39:49;;;;;;;19.13;11.45;;;;;;;7.17;90.53;99230.13;5135278;27;20046;-36
2023/11/15 02:42:14;;;;;;;18.00;11.48;;;;;;;7.35;89.51;99224.34;5135436;27;20098;-36
2023/11/15 02:44:40;;;;;;;18.80;10.82;;;;;;;7.54;88.11;99225.47;5135151;27;20540;-39
2023/11/15 02:47:05;;;;;;;22.30;10.93;;;;;;;7.57;87.11;99227.69;5135266;27;20043;-37
2023/11/15 02:49:31;;;;;;;19.40;10.82;;;;;;;7.33;88.69;99226.38;5135201;27;20479;-39
2023/11/15 02:51:56;;;;;;;16.98;10.38;;;;;;;7.18;89.38;99230.97;5135308;27;20106;-37
2023/11/15 02:54:21;;;;;;;19.20;10.13;;;;;;;7.21;90.75;99231.38;5122319;27;20016;-38
2023/11/15 02:56:47;;;;;;;22.65;11.43;;;;;;;7.19;90.77;99227.28;5114664;28;20682;-39
2023/11/15 02:59:12;;;;;;;22.38;11.93;;;;;;;7.31;89.83;99225.75;5114623;28;20027;-39
2023/11/15 03:01:47;;;;;;;19.63;11.60;;;;;;;7.33;89.90;99221.06;5114439;28;20030;-37
2023/11/15 03:04:13;;;;;;;18.80;11.43;;;;;;;7.34;88.98;99212.09;5113972;28;20076;-36
2023/11/15 03:06:39;;;;;;;18.42;10.85;;;;;;;7.35;89.46;99216.41;5113656;28;20032;-39
2023/11/15 03:09:05;;;;;;;18.80;11.15;;;;;;;7.34;90.19;99214.75;5114018;28;20023;-39
2023/11/15 03:11:30;;;;;;;17.58;10.75;;;;;;;7.51;88.84;99209.16;5114410;28;20630;-39
2023/11/15 03:13:57;;;;;;;21.30;11.57;;;;;;;7.78;88.21;99199.47;5113940;28;20041;-36
2023/11/15 03:16:22;;;;;;;23.25;11.75;;;;;;;7.70;87.13;99189.88;5113796;28;20031;-36
2023/11/15 03:18:47;;;;;;;20.33;10.98;;;;;;;7.85;86.80;99186.25;5113979;28;20023;-38
2023/11/15 03:21:13;;;;;;;20.42;11.32;;;;;;;7.78;87.01;99180.94;5114008;28;20016;-37
2023/11/15 03:23:38;;;;;;;18.98;11.02;;;;;;;7.89;86.16;99179.53;5114202;28;20452;-38
2023/11/15 03:26:04;;;;;;;20.80;10.90;;;;;;;7.72;86.24;99179.09;5112582;28;20490;-38
2023/11/15 03:28:31;;;;;;;20.90;10.57;;;;;;;7.34;89.37;99187.47;5113685;28;20090;-38
2023/11/15 03:30:56;;;;;;;17.38;10.65;;;;;;;7.05;90.19;99192.00;5113528;28;20107;-35
2023/11/15 03:33:23;;;;;;;19.40;11.45;;;;;;;7.16;90.55;99186.16;5113873;28;20155;-39
2023/11/15 03:35:49;;;;;;;19.45;11.13;;;;;;;7.09;90.99;99195.06;5113826;28;20448;-38
2023/11/15 03:38:14;;;;;;;18.10;10.52;;;;;;;7.07;91.53;99189.16;5113823;28;20027;-36
2023/11/15 03:40:41;;;;;;;21.48;10.73;;;;;;;7.35;90.71;99195.22;5114206;28;20031;-38
2023/11/15 03:43:06;;;;;;;20.45;11.52;;;;;;;7.47;89.76;99203.41;5113559;28;20042;-38
2023/11/15 03:45:32;;;;;;;24.85;13.05;;;;;;;7.26;89.35;99199.03;5113498;28;20087;-38
2023/11/15 03:48:02;;;;;;;27.17;16.48;;;;;;;7.25;90.13;99181.50;5113656;28;20127;-37
2023/11/15 03:50:27;;;;;;;22.13;12.38;;;;;;;7.22;90.99;99168.69;5113555;28;20542;-35
2023/11/15 03:52:54;;;;;;;20.48;12.23;;;;;;;7.37;89.76;99173.84;5113179;28;20030;-36
2023/11/15 03:55:19;;;;;;;23.02;12.20;;;;;;;7.18;89.78;99178.84;5113828;27;20110;-35
2023/11/15 03:57:46;;;;;;;37.20;15.00;;;;;;;7.11;90.22;99170.03;5113369;28;20094;-38
2023/11/15 04:00:13;;;;;;;27.45;14.18;;;;;;;7.09;90.73;99158.84;5113088;27;20107;-37
2023/11/15 04:02:39;;;;;;;30.08;13.98;;;;;;;7.07;89.78;99152.13;5113182;27;20050;-37
2023/11/15 04:05:05;;;;;;;30.88;14.20;;;;;;;7.00;89.43;99137.00;5111681;27;20486;-35
2023/11/15 04:07:31;;;;;;;35.22;14.95;;;;;;;7.16;89.22;99142.97;5113328;28;20035;-38
2023/11/15 04:09:56;;;;;;;33.80;14.20;;;;;;;6.97;89.36;99144.53;5113120;28;20118;-38
2023/11/15 04:12:22;;;;;;;26.73;13.57;;;;;;;6.94;89.56;99139.63;5112727;28;20023;-39
2023/11/15 04:14:47;;;;;;;29.38;14.55;;;;;;;6.82;89.91;99145.44;5113001;28;20031;-35
2023/11/15 04:17:14;;;;;;;35.42;14.80;;;;;;;6.90;90.26;99156.91;5112965;28;20020;-38
2023/11/15 04:19:39;;;;;;;30.73;14.20;;;;;;;6.72;91.98;99152.91;5112760;28;20019;-35
2023/11/15 04:22:05;;;;;;;31.05;15.32;;;;;;;6.86;90.93;99140.59;5112999;28;20196;-37
2023/11/15 04:24:30;;;;;;;39.00;16.15;;;;;;;6.81;90.96;99143.00;5112718;28;20019;-39
2023/11/15 04:26:57;;;;;;;36.83;15.20;;;;;;;6.80;92.10;99146.66;5112800;28;20031;-37
2023/11/15 04:29:23;;;;;;;44.03;17.05;;;;;;;6.72;90.90;99128.28;5112519;28;20050;-36
2023/11/15 04:31:49;;;;;;;35.85;16.52;;;;;;;7.12;89.61;99128.50;5112783;27;20035;-36
2023/11/15 04:34:17;;;;;;;33.22;16.42;;;;;;;6.74;89.49;99094.53;5112479;28;20087;-39
2023/11/15 04:36:43;;;;;;;28.80;16.00;;;;;;;6.59;90.31;99102.59;5112162;28;20500;-38
2023/11/15 04:39:08;;;;;;;31.92;16.15;;;;;;;6.61;92.16;99105.84;5112239;28;20065;-39
2023/11/15 04:41:34;;;;;;;35.40;18.48;;;;;;;6.69;91.55;99103.06;5112080;28;20034;-39
2023/11/15 04:44:04;;;;;;;37.17;19.98;;;;;;;6.62;91.12;99100.34;5112400;28;20116;-37
2023/11/15 04:46:30;;;;;;;38.28;19.35;;;;;;;6.80;89.98;99099.06;5112373;28;20529;-38
2023/11/15 04:48:56;;;;;;;38.70;18.73;;;;;;;6.87;90.61;99086.66;5112348;28;20107;-38
2023/11/15 04:51:21;;;;;;;34.70;15.90;;;;;;;6.79;88.66;99082.34;5111017;27;20115;-37
2023/11/15 04:53:47;;;;;;;37.92;17.63;;;;;;;6.77;90.74;99102.88;5105484;27;21516;-39
2023/11/15 04:56:12;;;;;;;34.55;17.27;;;;;;;6.75;90.30;99099.63;5111420;28;20024;-39
2023/11/15 04:58:39;;;;;;;31.35;15.35;;;;;;;6.77;87.94;99099.44;5111891;28;20438;-39
2023/11/15 05:01:05;;;;;;;32.58;15.82;;;;;;;6.61;88.59;99096.09;5112252;28;20023;-40
2023/11/15 05:03:31;;;;;;;32.65;16.52;;;;;;;6.39;90.29;99105.88;5112126;28;20035;-40
2023/11/15 05:05:56;;;;;;;31.08;15.75;;;;;;;6.46;91.22;99075.03;5111370;28;20028;-40
2023/11/15 05:08:22;;;;;;;30.45;15.70;;;;;;;6.61;90.14;99095.28;5112008;28;20035;-39
2023/11/15 05:10:48;;;;;;;29.25;15.15;;;;;;;6.75;88.21;99091.69;5111697;28;20527;-41
2023/11/15 05:13:13;;;;;;;26.85;15.15;;;;;;;6.49;88.41;99073.81;5112494;28;20030;-40
2023/11/15 05:15:39;;;;;;;28.52;15.20;;;;;;;6.30;89.64;99088.53;5112165;28;20430;-40
2023/11/15 05:18:04;;;;;;;28.50;15.18;;;;;;;6.21;90.17;99074.66;5112106;28;20111;-39
2023/11/15 05:20:29;;;;;;;27.80;15.20;;;;;;;6.18;91.94;99068.94;5112525;28;20110;-39
2023/11/15 05:22:55;;;;;;;29.13;14.50;;;;;;;6.15;92.15;99077.22;5112236;28;20403;-41
2023/11/15 05:25:21;;;;;;;28.10;14.52;;;;;;;6.14;90.28;99065.03;5112202;28;20042;-39
2023/11/15 05:27:47;;;;;;;27.00;15.70;;;;;;;6.32;90.51;99070.69;5112291;28;20069;-38
2023/11/15 05:30:14;;;;;;;29.17;15.48;;;;;;;6.33;89.65;99063.56;5112530;28;20388;-38
2023/11/15 05:32:40;;;;;;;32.53;14.38;;;;;;;6.68;89.61;99053.81;5112153;28;20023;-39
2023/11/15 05:35:05;;;;;;;23.90;13.73;;;;;;;6.83;86.81;99048.41;5112321;28;20390;-38
2023/11/15 05:37:31;;;;;;;24.77;13.85;;;;;;;6.82;88.31;99052.88;5111973;28;20026;-36
2023/11/15 05:39:56;;;;;;;26.65;13.77;;;;;;;6.80;88.99;99046.97;5111796;28;20051;-40
2023/11/15 05:42:22;;;;;;;24.15;13.55;;;;;;;7.10;87.81;99048.50;5111678;28;20028;-39
2023/11/15 05:44:48;;;;;;;27.90;13.63;;;;;;;7.33;88.78;99050.84;5111784;28;20024;-40
2023/11/15 05:47:15;;;;;;;28.38;16.83;;;;;;;7.22;87.60;99047.75;5111232;28;20412;-38
2023/11/15 05:49:41;;;;;;;27.90;14.82;;;;;;;7.06;89.08;99048.09;5110768;28;20024;-41
2023/11/15 05:52:06;;;;;;;27.30;14.73;;;;;;;7.19;87.96;99031.47;5111247;28;20043;-40
2023/11/15 05:54:32;;;;;;;27.48;15.00;;;;;;;7.49;86.04;99033.78;5111558;28;20031;-39
2023/11/15 05:56:58;;;;;;;26.42;15.35;;;;;;;7.68;86.87;99050.72;5111767;28;20020;-42
2023/11/15 05:59:24;;;;;;;34.10;16.63;;;;;;;8.73;83.24;99046.41;5111955;28;20024;-36
2023/11/15 06:01:51;;;;;;;29.83;15.85;;;;;;;9.58;79.08;99035.63;5112392;28;20035;-46
2023/11/15 06:04:17;;;;;;;28.42;14.50;;;;;;;10.02;76.22;99037.56;5111639;28;20383;-43
2023/11/15 06:06:42;;;;;;;25.70;14.77;;;;;;;10.99;71.94;99027.22;5111969;28;20016;-44
2023/11/15 06:09:13;;;;;;;31.15;16.13;;;;;;;11.62;70.46;99046.47;5111347;28;20024;-39
2023/11/15 06:11:39;;;;;;;27.52;14.15;;;;;;;12.05;67.42;99045.41;5110165;28;20073;-40
2023/11/15 06:14:04;;;;;;;30.98;13.85;;;;;;;12.25;66.37;99045.09;5095212;28;20450;-40
2023/11/15 06:16:30;;;;;;;24.70;14.00;;;;;;;12.40;65.37;99050.78;5108784;28;20016;-42
2023/11/15 06:18:55;;;;;;;27.85;13.55;;;;;;;12.72;65.34;99039.75;5110537;28;20031;-41
2023/11/15 06:21:21;;;;;;;24.58;14.25;;;;;;;13.42;60.92;99028.09;5111169;28;20220;-39
2023/11/15 06:23:47;;;;;;;30.02;13.88;;;;;;;13.73;59.75;99011.75;5110867;28;20347;-40
2023/11/15 06:26:12;;;;;;;24.65;13.63;;;;;;;13.93;59.58;99019.31;5111322;28;20032;-40
2023/11/15 06:28:40;;;;;;;20.50;12.88;;;;;;;14.12;60.12;99009.97;5110899;28;20049;-39
2023/11/15 06:31:06;;;;;;;22.48;12.52;;;;;;;14.25;59.74;99019.53;5109834;28;20106;-40
2023/11/15 06:33:32;;;;;;;22.98;12.63;;;;;;;14.68;57.67;99019.88;5110577;28;20019;-39
2023/11/15 06:35:57;;;;;;;24.67;12.77;;;;;;;15.11;57.15;99021.75;5110211;28;20368;-41
2023/11/15 06:38:23;;;;;;;21.23;11.95;;;;;;;15.48;55.39;99021.09;5110349;28;20154;-39
2023/11/15 06:40:49;;;;;;;20.05;11.65;;;;;;;15.61;54.68;99033.28;5111089;28;20027;-41
2023/11/15 06:43:14;;;;;;;21.10;11.80;;;;;;;15.59;54.02;99020.13;5110597;28;20392;-41
2023/11/15 06:45:39;;;;;;;23.30;12.27;;;;;;;15.35;54.84;99013.47;5110461;28;20103;-39
2023/11/15 06:48:06;;;;;;;22.75;11.93;;;;;;;15.58;55.19;99031.13;5110424;28;20044;-39
2023/11/15 06:50:34;;;;;;;23.08;12.20;;;;;;;15.86;53.75;99005.91;5110808;28;20043;-40
2023/11/15 06:53:00;;;;;;;28.55;15.27;;;;;;;16.39;52.12;99014.88;5110594;28;20157;-40
2023/11/15 06:55:26;;;;;;;27.63;15.30;;;;;;;16.54;51.81;99016.03;5110498;28;20031;-39
2023/11/15 06:57:51;;;;;;;32.00;15.65;;;;;;;16.34;51.79;99014.84;5110695;28;20236;-41
2023/11/15 07:00:17;;;;;;;30.60;15.57;;;;;;;16.50;51.60;99005.00;5111606;28;20476;-40
2023/11/15 07:02:42;;;;;;;30.25;15.68;;;;;;;16.53;51.14;99023.28;5114856;28;20544;-40
2023/11/15 07:05:10;;;;;;;39.80;17.73;;;;;;;16.25;51.85;99027.13;5114155;28;20077;-41
2023/11/15 07:07:35;;;;;;;30.33;16.40;;;;;;;16.22;51.56;99043.72;5114333;28;20019;-41
2023/11/15 07:10:05;;;;;;;30.98;17.52;;;;;;;16.19;51.91;99036.22;5114269;28;20399;-37
2023/11/15 07:12:30;;;;;;;37.10;17.77;;;;;;;16.10;51.63;99038.56;5114348;28;20475;-42
2023/11/15 07:14:57;;;;;;;34.30;17.65;;;;;;;16.03;52.35;99038.78;5114197;28;20027;-40
2023/11/15 07:17:23;;;;;;;37.00;17.88;;;;;;;16.18;52.40;99050.69;5114439;28;20117;-37
2023/11/15 07:19:48;;;;;;;34.95;18.23;;;;;;;16.23;52.28;99048.84;5113969;28;20411;-40
2023/11/15 07:22:15;;;;;;;31.95;17.52;;;;;;;16.32;52.54;99049.19;5114085;28;20471;-42
2023/11/15 07:24:41;;;;;;;31.02;17.15;;;;;;;16.38;51.48;99040.09;5114211;28;20471;-42
2023/11/15 07:27:09;;;;;;;35.53;17.73;;;;;;;16.27;52.08;99046.47;5114276;28;20059;-43
2023/11/15 07:29:36;;;;;;;29.42;16.85;;;;;;;15.46;54.02;99050.03;5114361;28;20099;-42
2023/11/15 07:32:04;;;;;;;31.60;16.55;;;;;;;15.56;54.06;99035.91;5114335;28;20419;-42
2023/11/15 07:34:33;;;;;;;28.67;17.40;;;;;;;15.22;54.84;99020.81;5113999;28;20027;-39
2023/11/15 07:36:59;;;;;;;34.03;19.15;;;;;;;15.62;54.04;99026.84;5113551;28;20031;-39
2023/11/15 07:39:25;;;;;;;31.38;17.20;;;;;;;15.91;52.48;99014.00;5113628;28;20030;-39
2023/11/15 07:41:58;;;;;;;30.90;16.33;;;;;;;15.92;54.01;99009.44;5114266;28;20016;-43
2023/11/15 07:44:25;;;;;;;34.65;16.27;;;;;;;15.66;54.69;99011.06;5113853;28;20049;-41
2023/11/15 07:46:54;;;;;;;27.08;16.10;;;;;;;15.72;54.35;99004.69;5113704;28;20109;-42
2023/11/15 07:49:23;;;;;;;25.17;14.90;;;;;;;16.00;52.84;99017.03;5113649;28;20055;-41
2023/11/15 07:51:49;;;;;;;26.90;14.53;;;;;;;16.13;53.36;99013.09;5113416;28;20035;-41
2023/11/15 07:54:15;;;;;;;30.40;16.55;;;;;;;16.32;53.61;99019.66;5113517;28;20280;-41
2023/11/15 07:56:41;;;;;;;35.60;16.23;;;;;;;15.68;54.89;99015.09;5113543;28;20502;-38
2023/11/15 07:59:06;;;;;;;32.30;16.05;;;;;;;16.11;53.99;99015.22;5113541;28;20031;-41
2023/11/15 08:01:32;;;;;;;25.05;15.02;;;;;;;16.22;53.11;99003.47;5113664;28;20077;-39
2023/11/15 08:03:58;;;;;;;32.67;16.13;;;;;;;16.21;52.93;99004.56;5113383;28;20027;-41
2023/11/15 08:06:24;;;;;;;30.10;16.67;;;;;;;16.33;53.27;99009.72;5113400;28;20098;-40
2023/11/15 08:08:49;;;;;;;32.55;16.25;;;;;;;16.30;53.16;99008.38;5113007;28;20537;-40
2023/11/15 08:11:14;;;;;;;26.70;16.15;;;;;;;16.35;52.71;98992.28;5113040;27;20448;-41
2023/11/15 08:13:41;;;;;;;27.63;15.73;;;;;;;16.44;52.10;98995.28;5112666;28;20125;-41
2023/11/15 08:16:12;;;;;;;32.65;16.50;;;;;;;16.59;51.69;98992.69;5113371;28;20027;-42
2023/11/15 08:18:38;;;;;;;30.92;16.25;;;;;;;16.10;52.76;98998.31;5113238;28;20426;-36
2023/11/15 08:21:05;;;;;;;25.98;16.73;;;;;;;15.67;54.84;99004.63;5113178;28;20034;-40
2023/11/15 08:23:31;;;;;;;31.08;16.42;;;;;;;15.82;54.48;98994.88;5113076;28;20023;-41
2023/11/15 08:26:01;;;;;;;31.77;17.08;;;;;;;16.02;53.98;98996.91;5112918;28;20034;-43
2023/11/15 08:28:27;;;;;;;34.25;16.70;;;;;;;16.33;54.00;98991.72;5112479;28;20023;-43
2023/11/15 08:30:52;;;;;;;30.48;15.15;;;;;;;16.67;52.58;98974.47;5112650;28;20029;-39
2023/11/15 08:33:18;;;;;;;31.73;15.82;;;;;;;16.71;52.57;98979.03;5112792;28;20030;-40
2023/11/15 08:35:46;;;;;;;32.70;15.93;;;;;;;17.16;51.63;98991.06;5112496;28;20470;-39
2023/11/15 08:38:12;;;;;;;33.13;16.25;;;;;;;17.24;51.30;98987.03;5112335;28;20575;-42
2023/11/15 08:40:38;;;;;;;33.65;16.52;;;;;;;17.24;51.51;98994.31;5112576;28;20103;-40
2023/11/15 08:43:03;;;;;;;34.65;16.75;;;;;;;17.59;50.86;98974.72;5112411;28;20028;-41
2023/11/15 08:45:29;;;;;;;28.42;15.57;;;;;;;17.71;50.99;98983.34;5112403;28;20103;-41
2023/11/15 08:47:56;;;;;;;29.60;16.23;;;;;;;18.54;49.06;98971.41;5112308;28;20050;-40
2023/11/15 08:50:25;;;;;;;37.17;16.85;;;;;;;19.03;47.59;98974.47;5112357;28;20043;-40
2023/11/15 08:52:51;;;;;;;31.05;17.08;;;;;;;18.92;47.58;98969.13;5111935;28;20061;-39
2023/11/15 08:55:16;;;;;;;26.23;16.52;;;;;;;18.78;47.29;98972.66;5111980;28;20023;-42
2023/11/15 08:57:42;;;;;;;31.70;16.55;;;;;;;19.25;45.13;98963.28;5112172;28;20024;-37
2023/11/15 09:00:15;;;;;;;27.40;16.30;;;;;;;19.63;44.82;98961.66;5112051;28;20422;-41
2023/11/15 09:02:46;;;;;;;23.40;15.85;;;;;;;19.59;44.79;98959.78;5112467;28;20406;-36
2023/11/15 09:05:15;;;;;;;33.53;16.85;;;;;;;19.59;45.04;98966.03;5112345;28;20061;-41
2023/11/15 09:07:41;;;;;;;31.45;17.38;;;;;;;19.89;44.13;98958.78;5112230;28;20020;-44
2023/11/15 09:10:08;;;;;;;31.42;16.40;;;;;;;20.04;44.17;98955.91;5112504;28;20028;-41
2023/11/15 09:12:35;;;;;;;26.80;15.07;;;;;;;20.51;43.20;98957.06;5112188;28;20023;-41
2023/11/15 09:15:03;;;;;;;25.60;14.93;;;;;;;20.51;42.91;98948.94;5111961;28;20039;-39
2023/11/15 09:17:29;;;;;;;30.40;16.33;;;;;;;21.01;41.52;98940.50;5112209;28;20036;-44
2023/11/15 09:19:59;;;;;;;29.58;17.15;;;;;;;20.75;42.02;98929.22;5112052;28;20499;-40
2023/11/15 09:22:25;;;;;;;27.75;16.25;;;;;;;20.74;42.38;98945.75;5112044;28;20046;-41
2023/11/15 09:24:53;;;;;;;28.15;16.70;;;;;;;20.97;42.37;98925.16;5111712;28;20479;-39
2023/11/15 09:27:23;;;;;;;33.45;17.38;;;;;;;21.28;40.91;98931.75;5111648;28;20073;-43
2023/11/15 09:29:51;;;;;;;30.80;16.73;;;;;;;20.78;42.02;98928.63;5112430;28;20088;-40
2023/11/15 09:32:18;;;;;;;30.95;16.77;;;;;;;20.98;41.47;98935.69;5112164;28;20027;-41
2023/11/15 09:34:46;;;;;;;28.10;16.92;;;;;;;20.80;42.19;98923.75;5111978;28;20372;-40
2023/11/15 09:37:12;;;;;;;26.70;16.27;;;;;;;20.92;41.25;98909.00;5111805;28;20110;-40
2023/11/15 09:39:38;;;;;;;28.75;16.45;;;;;;;20.77;40.99;98918.94;5111912;28;20037;-41
2023/11/15 09:42:04;;;;;;;29.50;16.65;;;;;;;20.77;42.43;98918.13;5112013;28;20031;-38
2023/11/15 09:44:34;;;;;;;27.77;16.33;;;;;;;20.40;41.94;98923.13;5112093;28;20559;-40
2023/11/15 09:47:03;;;;;;;29.63;16.77;;;;;;;21.07;41.53;98909.56;5112194;28;20134;-40
2023/11/15 09:49:31;;;;;;;24.65;15.93;;;;;;;21.33;41.00;98903.00;5111597;28;20027;-41
2023/11/15 09:51:59;;;;;;;33.65;16.65;;;;;;;21.64;39.98;98911.44;5093406;28;20403;-43
2023/11/15 09:54:25;;;;;;;29.35;17.08;;;;;;;21.73;39.27;98909.66;5111919;28;20035;-40
2023/11/15 09:56:50;;;;;;;24.95;16.83;;;;;;;21.93;39.35;98907.69;5111330;28;20027;-40
2023/11/15 09:59:17;;;;;;;25.58;14.95;;;;;;;21.79;39.67;98892.22;5111352;28;20028;-38
2023/11/15 10:01:45;;;;;;;24.55;14.50;;;;;;;20.77;40.69;98891.06;5111779;28;20084;-38
2023/11/15 10:04:25;;;;;;;24.38;14.48;;;;;;;20.62;41.67;98876.69;5111463;28;20023;-37
2023/11/15 10:06:55;;;;;;;24.35;14.13;;;;;;;20.35;42.11;98857.53;5111706;28;20084;-41
2023/11/15 10:09:39;;;;;;;28.20;14.35;;;;;;;20.58;41.15;98862.13;5111480;28;20070;-39
2023/11/15 10:12:06;;;;;;;28.45;14.82;;;;;;;20.33;41.27;98854.34;5111827;28;20399;-38
2023/11/15 10:14:36;;;;;;;21.90;13.73;;;;;;;20.85;40.92;98868.81;5111519;28;20038;-40
2023/11/15 10:17:03;;;;;;;25.60;14.63;;;;;;;21.32;40.24;98864.28;5111873;28;20019;-40
2023/11/15 10:19:29;;;;;;;31.40;15.10;;;;;;;21.55;40.47;98867.19;5111220;28;20016;-41
2023/11/15 10:22:04;;;;;;;25.30;14.05;;;;;;;22.02;39.62;98860.63;5111222;28;20500;-41
2023/11/15 10:24:31;;;;;;;30.60;15.32;;;;;;;21.64;39.78;98860.78;5111167;28;20031;-40
2023/11/15 10:27:06;;;;;;;24.63;14.13;;;;;;;21.67;39.13;98857.50;5110851;28;20026;-43
2023/11/15 10:29:31;;;;;;;21.02;13.32;;;;;;;21.38;40.15;98865.84;5111366;28;20031;-41
2023/11/15 10:32:00;;;;;;;23.58;14.65;;;;;;;20.63;41.77;98861.28;5111283;28;20031;-39
2023/11/15 10:34:32;;;;;;;32.65;16.80;;;;;;;20.71;41.17;98863.31;5110949;28;20098;-40
2023/11/15 10:37:13;;;;;;;28.17;16.02;;;;;;;20.59;41.91;98865.63;5115171;28;20394;-40
2023/11/15 10:39:43;;;;;;;24.42;12.23;;;;;;;20.54;41.60;98861.06;5116111;28;20023;-42
2023/11/15 10:42:13;;;;;;;18.88;11.18;;;;;;;20.55;41.99;98860.00;5115210;28;20395;-39
2023/11/15 10:44:40;;;;;;;21.95;11.25;;;;;;;19.78;43.38;98854.69;5115011;28;20399;-40
2023/11/15 10:47:07;;;;;;;22.38;12.45;;;;;;;19.63;43.77;98861.81;5115149;28;20522;-41
2023/11/15 10:49:40;;;;;;;24.35;11.57;;;;;;;19.23;44.78;98855.69;5115066;28;20035;-41
2023/11/15 10:52:06;;;;;;;21.98;11.38;;;;;;;19.73;44.20;98850.16;5114727;28;20016;-40
2023/11/15 10:54:33;;;;;;;25.75;12.50;;;;;;;19.94;44.18;98866.13;5114807;28;20403;-40
2023/11/15 10:57:04;;;;;;;24.77;10.70;;;;;;;20.28;44.07;98882.22;5114920;28;20107;-40
2023/11/15 10:59:36;;;;;;;20.60;11.52;;;;;;;19.97;43.60;98887.16;5114614;28;20108;-39
2023/11/15 11:02:05;;;;;;;19.25;11.63;;;;;;;19.79;44.77;98896.78;5114390;28;20494;-38
2023/11/15 11:04:32;;;;;;;19.98;10.65;;;;;;;20.11;44.40;98912.38;5114139;28;20058;-40
2023/11/15 11:07:08;;;;;;;17.55;10.70;;;;;;;19.83;45.07;98916.72;5114615;28;20059;-40
2023/11/15 11:09:45;;;;;;;15.88;9.25;;;;;;;19.82;45.62;98917.78;5114304;28;20020;-40
2023/11/15 11:12:14;;;;;;;12.45;6.68;;;;;;;19.63;44.84;98928.47;5114527;28;20015;-39
2023/11/15 11:14:40;;;;;;;14.05;6.07;;;;;;;19.32;45.79;98926.00;5114377;28;20028;-41
2023/11/15 11:17:30;;;;;;;11.35;6.25;;;;;;;19.46;45.61;98945.06;5114031;28;20031;-40
2023/11/15 11:19:59;;;;;;;10.27;6.07;;;;;;;19.78;44.59;98944.56;5114317;28;20051;-38